createdAt,value
2022-09-18T00:01:43.063Z,82.76
2022-09-18T00:04:15.125Z,82.75
2022-09-18T00:06:45.725Z,82.96
2022-09-18T00:09:16.358Z,83.00
2022-09-18T00:11:49.444Z,82.69
2022-09-18T00:14:22.737Z,82.91
2022-09-18T00:16:52.349Z,83.54
2022-09-18T00:19:22.900Z,83.49
2022-09-18T00:21:52.410Z,83.96
2022-09-18T00:24:23.520Z,83.67
2022-09-18T00:26:51.521Z,84.13
2022-09-18T00:29:21.919Z,84.70
2022-09-18T00:31:49.990Z,84.64
2022-09-18T00:34:20.619Z,84.60
2022-09-18T00:36:48.624Z,84.69
2022-09-18T00:39:18.376Z,84.56
2022-09-18T00:41:49.336Z,84.53
2022-09-18T00:44:35.878Z,84.63
2022-09-18T00:47:17.928Z,84.77
2022-09-18T00:50:04.684Z,85.30
2022-09-18T00:52:47.235Z,85.30
2022-09-18T00:55:19.165Z,85.46
2022-09-18T00:57:52.111Z,85.49
2022-09-18T01:00:20.952Z,85.30
2022-09-18T01:02:51.092Z,85.22
2022-09-18T01:05:41.770Z,85.47
2022-09-18T01:08:44.212Z,85.65
2022-09-18T01:11:38.443Z,85.70
2022-09-18T01:14:31.927Z,85.10
2022-09-18T01:17:02.821Z,85.90
2022-09-18T01:20:11.727Z,85.89
2022-09-18T01:23:05.346Z,86.04
2022-09-18T01:25:52.317Z,85.92
2022-09-18T01:28:30.505Z,85.81
2022-09-18T01:31:09.871Z,85.82
2022-09-18T01:33:50.288Z,85.82
2022-09-18T01:36:24.929Z,85.71
2022-09-18T01:39:01.966Z,85.84
2022-09-18T01:41:31.677Z,86.32
2022-09-18T01:44:13.414Z,86.15
2022-09-18T01:46:44.628Z,86.24
2022-09-18T01:49:20.570Z,86.53
2022-09-18T01:52:02.923Z,86.28
2022-09-18T01:54:39.476Z,86.46
2022-09-18T01:57:36.410Z,85.99
2022-09-18T02:00:10.521Z,86.00
2022-09-18T02:02:45.723Z,85.95
2022-09-18T02:05:49.814Z,86.34
2022-09-18T02:08:29.391Z,86.36
2022-09-18T02:11:08.938Z,86.15
2022-09-18T02:13:56.055Z,86.21
2022-09-18T02:16:36.639Z,86.25
2022-09-18T02:19:35.635Z,86.36
2022-09-18T02:22:09.667Z,86.60
2022-09-18T02:24:41.773Z,86.49
2022-09-18T02:27:13.929Z,86.44
2022-09-18T02:29:46.552Z,86.54
2022-09-18T02:32:14.597Z,86.65
2022-09-18T02:34:42.886Z,86.79
2022-09-18T02:37:18.889Z,87.02
2022-09-18T02:40:02.387Z,87.19
2022-09-18T02:43:03.694Z,87.43
2022-09-18T02:45:55.977Z,87.39
2022-09-18T02:48:24.134Z,87.24
2022-09-18T02:51:10.243Z,87.16
2022-09-18T02:54:05.160Z,86.94
2022-09-18T02:56:59.381Z,86.84
2022-09-18T02:59:40.902Z,86.73
2022-09-18T03:02:10.490Z,86.74
2022-09-18T03:04:40.576Z,87.00
2022-09-18T03:07:16.477Z,87.14
2022-09-18T03:09:45.652Z,87.10
2022-09-18T03:12:15.465Z,87.07
2022-09-18T03:14:45.212Z,87.09
2022-09-18T03:17:14.904Z,87.17
2022-09-18T03:19:45.435Z,87.25
2022-09-18T03:22:13.651Z,87.19
2022-09-18T03:24:43.488Z,87.05
2022-09-18T03:27:13.434Z,87.15
2022-09-18T03:29:43.554Z,86.97
2022-09-18T03:32:13.675Z,86.96
2022-09-18T03:34:41.650Z,87.16
2022-09-18T03:37:09.931Z,87.18
2022-09-18T03:39:39.942Z,87.19
2022-09-18T03:42:07.883Z,87.21
2022-09-18T03:44:35.788Z,87.32
2022-09-18T03:47:05.993Z,87.32
2022-09-18T03:49:34.176Z,87.25
2022-09-18T03:52:04.484Z,87.34
2022-09-18T03:54:32.213Z,87.26
2022-09-18T03:57:01.967Z,87.08
2022-09-18T03:59:29.631Z,87.24
2022-09-18T04:01:59.485Z,87.28
2022-09-18T04:04:30.003Z,87.41
2022-09-18T04:06:58.038Z,87.39
2022-09-18T04:09:26.136Z,87.39
2022-09-18T04:11:55.788Z,87.47
2022-09-18T04:14:27.943Z,87.56
2022-09-18T04:16:57.959Z,87.50
2022-09-18T04:19:26.260Z,87.54
2022-09-18T04:21:54.348Z,87.67
2022-09-18T04:24:22.372Z,87.73
2022-09-18T04:26:50.681Z,87.60
2022-09-18T04:29:18.773Z,87.62
2022-09-18T04:31:46.529Z,87.62
2022-09-18T04:34:17.927Z,87.62
2022-09-18T04:36:46.047Z,87.70
2022-09-18T04:39:13.850Z,87.69
2022-09-18T04:41:43.441Z,87.80
2022-09-18T04:44:11.416Z,87.76
2022-09-18T04:46:39.344Z,87.75
2022-09-18T04:49:07.797Z,87.65
2022-09-18T04:51:36.037Z,87.58
2022-09-18T04:54:04.442Z,87.56
2022-09-18T04:56:32.166Z,87.46
2022-09-18T04:59:02.083Z,87.60
2022-09-18T05:01:30.907Z,87.44
2022-09-18T05:03:58.938Z,87.55
2022-09-18T05:06:28.645Z,87.56
2022-09-18T05:08:59.472Z,87.70
2022-09-18T05:11:31.266Z,87.77
2022-09-18T05:14:00.125Z,87.99
2022-09-18T05:16:28.485Z,88.04
2022-09-18T05:18:57.722Z,87.56
2022-09-18T05:21:27.650Z,87.66
2022-09-18T05:23:55.580Z,87.43
2022-09-18T05:26:23.618Z,87.46
2022-09-18T05:28:51.837Z,87.73
2022-09-18T05:31:19.595Z,87.71
2022-09-18T05:33:50.182Z,87.54
2022-09-18T05:36:18.112Z,88.04
2022-09-18T05:38:46.010Z,88.04
2022-09-18T05:41:14.037Z,88.32
2022-09-18T05:43:47.717Z,87.99
2022-09-18T05:46:15.693Z,87.89
2022-09-18T05:48:43.714Z,88.03
2022-09-18T05:51:11.698Z,87.86
2022-09-18T05:53:39.914Z,87.82
2022-09-18T05:56:10.117Z,87.70
2022-09-18T05:58:38.369Z,88.12
2022-09-18T06:01:06.593Z,88.12
2022-09-18T06:03:34.493Z,87.84
2022-09-18T06:06:02.188Z,87.79
2022-09-18T06:08:31.746Z,87.68
2022-09-18T06:11:03.766Z,87.60
2022-09-18T06:13:32.620Z,87.54
2022-09-18T06:16:00.940Z,87.51
2022-09-18T06:18:30.483Z,87.43
2022-09-18T06:21:00.965Z,87.73
2022-09-18T06:23:30.672Z,87.27
2022-09-18T06:26:04.433Z,87.08
2022-09-18T06:28:34.573Z,87.16
2022-09-18T06:31:06.024Z,86.98
2022-09-18T06:33:36.645Z,86.79
2022-09-18T06:36:10.733Z,86.67
2022-09-18T06:38:41.303Z,86.57
2022-09-18T06:41:10.665Z,86.33
2022-09-18T06:43:38.636Z,86.19
2022-09-18T06:46:08.706Z,86.17
2022-09-18T06:48:39.462Z,86.02
2022-09-18T06:51:09.966Z,86.02
2022-09-18T06:53:39.924Z,86.20
2022-09-18T06:56:08.207Z,86.19
2022-09-18T06:58:36.277Z,86.19
2022-09-18T07:01:04.408Z,86.36
2022-09-18T07:03:32.184Z,86.20
2022-09-18T07:06:01.885Z,86.44
2022-09-18T07:08:32.100Z,86.44
2022-09-18T07:11:02.583Z,86.35
2022-09-18T07:13:34.088Z,86.30
2022-09-18T07:16:02.422Z,86.36
2022-09-18T07:18:34.429Z,86.42
2022-09-18T07:21:03.310Z,86.44
2022-09-18T07:23:34.841Z,86.38
2022-09-18T07:26:05.373Z,86.37
2022-09-18T07:28:35.777Z,86.31
2022-09-18T07:31:08.546Z,86.30
2022-09-18T07:33:38.257Z,86.20
2022-09-18T07:36:08.130Z,86.15
2022-09-18T07:38:37.721Z,86.10
2022-09-18T07:41:06.137Z,86.13
2022-09-18T07:43:35.859Z,86.12
2022-09-18T07:46:05.787Z,86.33
2022-09-18T07:48:35.767Z,86.34
2022-09-18T07:51:05.965Z,86.41
2022-09-18T07:53:33.921Z,86.38
2022-09-18T07:56:12.129Z,86.44
2022-09-18T07:58:41.764Z,86.32
2022-09-18T08:01:13.707Z,86.22
2022-09-18T08:03:41.961Z,86.17
2022-09-18T08:06:13.796Z,86.18
2022-09-18T08:08:41.771Z,86.36
2022-09-18T08:11:10.180Z,86.43
2022-09-18T08:13:40.304Z,86.50
2022-09-18T08:16:10.376Z,86.33
2022-09-18T08:18:39.845Z,86.34
2022-09-18T08:21:10.863Z,86.37
2022-09-18T08:23:39.977Z,86.29
2022-09-18T08:26:10.495Z,86.15
2022-09-18T08:28:40.598Z,85.96
2022-09-18T08:31:11.155Z,85.79
2022-09-18T08:33:41.550Z,85.71
2022-09-18T08:36:11.971Z,85.57
2022-09-18T08:38:41.976Z,85.27
2022-09-18T08:41:49.701Z,84.72
2022-09-18T08:44:32.076Z,84.25
2022-09-18T08:47:12.872Z,84.07
2022-09-18T08:50:05.029Z,84.12
2022-09-18T08:52:40.183Z,83.80
2022-09-18T08:55:30.476Z,83.61
2022-09-18T08:58:14.080Z,83.43
2022-09-18T09:00:48.712Z,83.02
2022-09-18T09:03:47.545Z,82.93
2022-09-18T09:06:49.071Z,82.63
2022-09-18T09:09:21.850Z,81.40
2022-09-18T09:12:29.693Z,81.31
2022-09-18T09:15:05.493Z,80.18
2022-09-18T09:18:03.566Z,80.20
2022-09-18T09:21:11.627Z,80.08
2022-09-18T09:24:10.056Z,80.60
2022-09-18T09:26:42.530Z,80.32
2022-09-18T09:29:29.403Z,79.50
2022-09-18T09:32:28.748Z,78.18
2022-09-18T09:35:16.962Z,77.17
2022-09-18T09:37:49.116Z,76.71
2022-09-18T09:40:43.246Z,77.91
2022-09-18T09:43:28.205Z,76.87
2022-09-18T09:46:04.572Z,76.61
2022-09-18T09:48:49.990Z,75.90
2022-09-18T09:51:53.647Z,74.79
2022-09-18T09:54:22.138Z,74.18
2022-09-18T09:57:03.414Z,74.75
2022-09-18T09:59:39.721Z,74.92
2022-09-18T10:02:46.813Z,74.56
2022-09-18T10:05:46.878Z,75.06
2022-09-18T10:08:40.879Z,74.03
2022-09-18T10:11:13.473Z,73.32
2022-09-18T10:13:53.898Z,72.72
2022-09-18T10:16:34.111Z,73.23
2022-09-18T10:19:06.673Z,71.09
2022-09-18T10:21:41.822Z,71.45
2022-09-18T10:24:18.072Z,71.29
2022-09-18T10:27:02.762Z,70.48
2022-09-18T10:29:33.890Z,68.40
2022-09-18T10:32:14.037Z,69.17
2022-09-18T10:34:50.483Z,69.31
2022-09-18T10:37:30.785Z,68.83
2022-09-18T10:40:01.974Z,69.52
2022-09-18T10:42:35.558Z,69.41
2022-09-18T10:45:26.468Z,68.65
2022-09-18T10:48:14.906Z,68.72
2022-09-18T10:51:06.675Z,68.34
2022-09-18T10:53:42.759Z,68.85
2022-09-18T10:56:21.652Z,69.17
2022-09-18T10:58:52.621Z,69.07
2022-09-18T11:01:24.621Z,68.79
2022-09-18T11:04:03.255Z,68.94
2022-09-18T11:06:38.772Z,69.23
2022-09-18T11:09:18.595Z,69.15
2022-09-18T11:11:52.214Z,68.74
2022-09-18T11:14:31.118Z,68.84
2022-09-18T11:17:02.961Z,68.70
2022-09-18T11:19:42.766Z,68.31
2022-09-18T11:22:54.006Z,66.30
2022-09-18T11:25:30.414Z,66.18
2022-09-18T11:28:03.097Z,65.89
2022-09-18T11:30:39.049Z,66.16
2022-09-18T11:33:10.348Z,66.69
2022-09-18T11:35:55.410Z,66.90
2022-09-18T11:38:27.556Z,66.77
2022-09-18T11:41:03.458Z,66.13
2022-09-18T11:43:40.393Z,66.71
2022-09-18T11:46:30.406Z,66.63
2022-09-18T11:49:26.206Z,66.75
2022-09-18T11:52:05.546Z,66.86
2022-09-18T11:54:38.337Z,66.96
2022-09-18T11:57:23.055Z,67.27
2022-09-18T12:00:04.103Z,67.47
2022-09-18T12:02:41.510Z,67.49
2022-09-18T12:05:20.720Z,67.69
2022-09-18T12:07:58.326Z,67.80
2022-09-18T12:11:06.426Z,68.25
2022-09-18T12:14:05.112Z,68.26
2022-09-18T12:17:03.351Z,68.23
2022-09-18T12:19:38.892Z,68.25
2022-09-18T12:22:09.611Z,68.35
2022-09-18T12:24:41.798Z,68.55
2022-09-18T12:27:40.663Z,68.25
2022-09-18T12:30:22.432Z,67.98
2022-09-18T12:33:20.908Z,67.11
2022-09-18T12:36:18.962Z,66.93
2022-09-18T12:39:15.542Z,66.96
2022-09-18T12:42:03.980Z,66.93
2022-09-18T12:45:07.003Z,66.16
2022-09-18T12:47:49.602Z,66.35
2022-09-18T12:50:57.291Z,66.10
2022-09-18T12:54:10.962Z,66.47
2022-09-18T12:56:52.968Z,66.39
2022-09-18T12:59:31.822Z,66.42
2022-09-18T13:02:24.386Z,65.32
2022-09-18T13:05:01.237Z,64.92
2022-09-18T13:07:52.056Z,64.00
2022-09-18T13:10:32.216Z,64.05
2022-09-18T13:13:09.887Z,64.35
2022-09-18T13:15:51.025Z,64.06
2022-09-18T13:18:41.857Z,63.82
2022-09-18T13:21:47.201Z,63.54
2022-09-18T13:24:22.897Z,64.00
2022-09-18T13:26:52.676Z,63.64
2022-09-18T13:29:45.217Z,64.08
2022-09-18T13:32:15.941Z,64.74
2022-09-18T13:34:53.090Z,64.89
2022-09-18T13:37:24.773Z,65.16
2022-09-18T13:40:10.148Z,65.45
2022-09-18T13:42:43.486Z,65.60
2022-09-18T13:45:25.526Z,65.79
2022-09-18T13:48:02.009Z,65.93
2022-09-18T13:50:31.873Z,66.02
2022-09-18T13:53:02.738Z,65.68
2022-09-18T13:55:49.424Z,65.32
2022-09-18T13:58:34.329Z,65.19
2022-09-18T14:01:08.456Z,65.68
2022-09-18T14:03:40.437Z,65.86
2022-09-18T14:06:37.249Z,65.89
2022-09-18T14:09:44.847Z,66.14
2022-09-18T14:12:16.122Z,66.51
2022-09-18T14:14:57.795Z,66.27
2022-09-18T14:17:26.430Z,66.36
2022-09-18T14:20:18.536Z,66.13
2022-09-18T14:22:46.569Z,65.82
2022-09-18T14:25:35.456Z,66.15
2022-09-18T14:28:06.397Z,66.30
2022-09-18T14:30:35.092Z,66.59
2022-09-18T14:33:23.465Z,66.76
2022-09-18T14:36:04.698Z,66.85
2022-09-18T14:38:41.017Z,67.11
2022-09-18T14:41:21.488Z,67.14
2022-09-18T14:44:00.324Z,67.25
2022-09-18T14:46:29.366Z,67.85
2022-09-18T14:48:57.135Z,68.29
2022-09-18T14:51:28.366Z,68.43
2022-09-18T14:54:00.379Z,68.78
2022-09-18T14:56:38.301Z,69.01
2022-09-18T14:59:14.397Z,69.18
2022-09-18T15:01:43.379Z,69.64
2022-09-18T15:04:17.968Z,69.65
2022-09-18T15:06:53.840Z,69.72
2022-09-18T15:09:33.429Z,69.80
2022-09-18T15:12:03.192Z,69.98
2022-09-18T15:14:44.101Z,70.10
2022-09-18T15:17:24.099Z,70.21
2022-09-18T15:19:57.310Z,70.39
2022-09-18T15:22:28.630Z,70.47
2022-09-18T15:25:01.516Z,70.68
2022-09-18T15:27:33.462Z,70.91
2022-09-18T15:30:08.619Z,71.13
2022-09-18T15:32:42.180Z,71.17
2022-09-18T15:35:21.310Z,71.40
2022-09-18T15:38:03.607Z,71.42
2022-09-18T15:40:37.312Z,71.56
2022-09-18T15:43:16.346Z,71.64
2022-09-18T15:46:09.712Z,71.76
2022-09-18T15:48:44.312Z,72.03
2022-09-18T15:51:37.639Z,72.04
2022-09-18T15:54:13.206Z,72.38
2022-09-18T15:56:58.738Z,72.42
2022-09-18T15:59:39.291Z,72.50
2022-09-18T16:02:21.451Z,72.60
2022-09-18T16:04:49.427Z,72.74
2022-09-18T16:07:25.969Z,72.86
2022-09-18T16:09:57.277Z,72.99
2022-09-18T16:12:31.292Z,73.20
2022-09-18T16:15:13.496Z,73.58
2022-09-18T16:17:45.507Z,73.75
2022-09-18T16:20:30.727Z,73.98
2022-09-18T16:23:14.770Z,74.08
2022-09-18T16:25:48.248Z,74.04
2022-09-18T16:28:27.362Z,74.27
2022-09-18T16:30:57.514Z,74.59
2022-09-18T16:33:30.050Z,74.70
2022-09-18T16:36:10.446Z,74.80
2022-09-18T16:38:40.057Z,74.95
2022-09-18T16:41:11.464Z,75.15
2022-09-18T16:43:40.179Z,75.46
2022-09-18T16:46:08.981Z,75.36
2022-09-18T16:48:37.404Z,75.46
2022-09-18T16:51:06.043Z,75.79
2022-09-18T16:53:38.576Z,75.91
2022-09-18T16:56:14.069Z,76.12
2022-09-18T16:58:45.229Z,76.29
2022-09-18T17:01:13.229Z,76.20
2022-09-18T17:03:43.199Z,76.10
2022-09-18T17:06:11.272Z,76.03
2022-09-18T17:08:42.112Z,75.92
2022-09-18T17:11:13.473Z,75.93
2022-09-18T17:13:41.716Z,75.86
2022-09-18T17:16:11.055Z,76.00
2022-09-18T17:18:41.963Z,76.41
2022-09-18T17:21:13.716Z,76.55
2022-09-18T17:23:44.145Z,76.77
2022-09-18T17:26:15.319Z,76.61
2022-09-18T17:28:44.381Z,76.77
2022-09-18T17:31:19.301Z,76.96
2022-09-18T17:33:47.810Z,77.15
2022-09-18T17:36:17.983Z,77.25
2022-09-18T17:38:47.419Z,77.16
2022-09-18T17:41:20.819Z,77.35
2022-09-18T17:43:54.620Z,77.83
2022-09-18T17:46:22.837Z,77.98
2022-09-18T17:48:57.855Z,77.93
2022-09-18T17:51:28.950Z,77.95
2022-09-18T17:54:03.097Z,78.13
2022-09-18T17:56:34.190Z,78.33
2022-09-18T17:59:06.073Z,78.11
2022-09-18T18:01:40.725Z,78.02
2022-09-18T18:04:10.056Z,78.07
2022-09-18T18:06:40.232Z,77.99
2022-09-18T18:09:10.153Z,77.84
2022-09-18T18:11:39.036Z,77.86
2022-09-18T18:14:09.272Z,78.22
2022-09-18T18:16:39.972Z,78.55
2022-09-18T18:19:12.785Z,78.39
2022-09-18T18:21:44.402Z,78.47
2022-09-18T18:24:18.401Z,78.69
2022-09-18T18:26:49.789Z,78.58
2022-09-18T18:29:23.025Z,78.72
2022-09-18T18:31:54.571Z,78.65
2022-09-18T18:34:25.260Z,78.65
2022-09-18T18:36:57.800Z,78.85
2022-09-18T18:39:26.094Z,79.05
2022-09-18T18:41:55.828Z,79.02
2022-09-18T18:44:26.388Z,78.93
2022-09-18T18:46:57.952Z,78.89
2022-09-18T18:49:26.182Z,78.89
2022-09-18T18:51:55.042Z,79.16
2022-09-18T18:54:25.102Z,79.35
2022-09-18T18:56:56.367Z,79.34
2022-09-18T18:59:27.606Z,79.49
2022-09-18T19:01:59.926Z,79.42
2022-09-18T19:04:30.889Z,79.45
2022-09-18T19:07:02.439Z,79.37
2022-09-18T19:09:32.866Z,79.55
2022-09-18T19:12:04.243Z,79.47
2022-09-18T19:14:34.541Z,79.47
2022-09-18T19:17:03.221Z,79.44
2022-09-18T19:19:31.537Z,79.41
2022-09-18T19:22:02.973Z,79.49
2022-09-18T19:24:32.366Z,79.40
2022-09-18T19:27:02.161Z,79.41
2022-09-18T19:29:32.485Z,79.45
2022-09-18T19:32:02.533Z,79.33
2022-09-18T19:34:30.758Z,79.37
2022-09-18T19:37:02.535Z,79.20
2022-09-18T19:39:31.225Z,79.12
2022-09-18T19:42:14.856Z,79.20
2022-09-18T19:44:56.893Z,79.17
2022-09-18T19:47:45.962Z,79.08
2022-09-18T19:50:33.071Z,78.98
2022-09-18T19:53:02.869Z,78.93
2022-09-18T19:55:30.839Z,78.84
2022-09-18T19:58:03.291Z,78.84
2022-09-18T20:00:33.635Z,78.82
2022-09-18T20:03:01.756Z,78.70
2022-09-18T20:05:33.998Z,78.66
2022-09-18T20:08:02.186Z,78.71
2022-09-18T20:10:42.103Z,78.76
2022-09-18T20:13:13.483Z,78.68
2022-09-18T20:15:45.631Z,78.65
2022-09-18T20:18:19.976Z,78.64
2022-09-18T20:20:53.127Z,78.65
2022-09-18T20:23:25.674Z,78.76
2022-09-18T20:25:53.735Z,78.67
2022-09-18T20:28:23.811Z,78.64
2022-09-18T20:30:51.734Z,78.63
2022-09-18T20:33:22.937Z,78.61
2022-09-18T20:35:59.070Z,78.56
2022-09-18T20:38:35.043Z,78.55
2022-09-18T20:41:11.598Z,78.56
2022-09-18T20:43:47.515Z,78.57
2022-09-18T20:46:18.390Z,78.57
2022-09-18T20:48:53.243Z,78.56
2022-09-18T20:51:37.467Z,78.53
2022-09-18T20:54:08.506Z,78.51
2022-09-18T20:56:44.605Z,78.62
2022-09-18T20:59:17.441Z,78.62
2022-09-18T21:01:47.269Z,78.64
2022-09-18T21:04:17.545Z,78.50
2022-09-18T21:06:55.755Z,78.44
2022-09-18T21:09:26.614Z,78.40
2022-09-18T21:11:57.119Z,78.44
2022-09-18T21:14:27.561Z,78.42
2022-09-18T21:16:56.355Z,78.40
2022-09-18T21:19:28.098Z,78.40
2022-09-18T21:21:55.962Z,78.44
2022-09-18T21:24:23.934Z,78.40
2022-09-18T21:26:51.697Z,78.36
2022-09-18T21:29:27.035Z,78.25
2022-09-18T21:31:57.367Z,78.17
2022-09-18T21:34:31.366Z,78.11
2022-09-18T21:37:04.719Z,78.02
2022-09-18T21:39:33.069Z,77.94
2022-09-18T21:42:02.669Z,77.90
2022-09-18T21:44:31.880Z,77.86
2022-09-18T21:47:02.146Z,77.87
2022-09-18T21:49:31.079Z,77.87
2022-09-18T21:52:07.576Z,77.84
2022-09-18T21:54:35.672Z,77.84
2022-09-18T21:57:04.284Z,77.84
2022-09-18T21:59:36.599Z,77.89
2022-09-18T22:02:04.866Z,77.85
2022-09-18T22:04:34.000Z,77.81
2022-09-18T22:07:02.512Z,77.76
2022-09-18T22:09:40.777Z,77.72
2022-09-18T22:12:09.915Z,77.72
2022-09-18T22:14:38.499Z,77.71
2022-09-18T22:17:08.127Z,77.68
2022-09-18T22:19:40.515Z,77.63
2022-09-18T22:22:11.005Z,77.56
2022-09-18T22:24:39.386Z,77.54
2022-09-18T22:27:10.425Z,77.52
2022-09-18T22:29:39.920Z,77.49
2022-09-18T22:32:10.911Z,77.48
2022-09-18T22:34:39.248Z,77.44
2022-09-18T22:37:08.078Z,77.40
2022-09-18T22:39:35.898Z,77.46
2022-09-18T22:42:03.764Z,77.46
2022-09-18T22:44:31.711Z,77.40
2022-09-18T22:46:59.771Z,77.42
2022-09-18T22:49:27.673Z,77.43
2022-09-18T22:51:56.051Z,77.42
2022-09-18T22:54:26.115Z,77.45
2022-09-18T22:56:55.628Z,77.48
2022-09-18T22:59:26.349Z,77.51
2022-09-18T23:02:00.878Z,77.52
2022-09-18T23:04:31.913Z,77.58
2022-09-18T23:07:00.337Z,77.67
2022-09-18T23:09:29.491Z,77.74
2022-09-18T23:11:58.352Z,77.73
2022-09-18T23:14:29.374Z,77.75
2022-09-18T23:16:58.286Z,77.77
2022-09-18T23:19:29.203Z,77.78
2022-09-18T23:21:58.264Z,77.80
2022-09-18T23:24:26.981Z,77.81
2022-09-18T23:26:58.015Z,77.82
2022-09-18T23:29:28.037Z,77.85
2022-09-18T23:31:57.617Z,77.86
2022-09-18T23:34:30.330Z,77.84
2022-09-18T23:36:58.710Z,77.84
2022-09-18T23:39:32.817Z,77.84
2022-09-18T23:42:02.189Z,77.81
2022-09-18T23:44:31.645Z,77.73
2022-09-18T23:47:00.347Z,77.62
2022-09-18T23:49:29.393Z,77.53
2022-09-18T23:51:59.529Z,77.44
2022-09-18T23:54:30.174Z,77.36
2022-09-18T23:56:58.578Z,77.33
2022-09-18T23:59:27.508Z,77.29
